createdAt,value
2022-10-14T00:01:10.833Z,3.50
2022-10-14T00:03:59.131Z,4.00
2022-10-14T00:06:51.361Z,4.17
2022-10-14T00:09:38.285Z,3.57
2022-10-14T00:12:25.449Z,3.93
2022-10-14T00:15:12.418Z,2.73
2022-10-14T00:17:59.793Z,2.57
2022-10-14T00:20:46.807Z,4.97
2022-10-14T00:23:33.793Z,3.63
2022-10-14T00:26:20.777Z,3.13
2022-10-14T00:29:08.338Z,4.57
2022-10-14T00:31:55.596Z,3.17
2022-10-14T00:34:42.572Z,2.90
2022-10-14T00:37:29.604Z,3.57
2022-10-14T00:40:16.508Z,4.80
2022-10-14T00:43:03.701Z,2.87
2022-10-14T00:45:50.598Z,2.97
2022-10-14T00:48:40.703Z,4.27
2022-10-14T00:51:27.677Z,3.83
2022-10-14T00:54:14.845Z,2.87
2022-10-14T00:57:03.392Z,2.43
2022-10-14T00:59:52.764Z,2.83
2022-10-14T01:02:39.876Z,3.10
2022-10-14T01:05:30.281Z,2.47
2022-10-14T01:08:31.372Z,2.80
2022-10-14T01:11:30.236Z,3.63
2022-10-14T01:14:27.888Z,2.90
2022-10-14T01:17:33.584Z,3.93
2022-10-14T01:20:32.766Z,2.40
2022-10-14T01:23:38.049Z,3.47
2022-10-14T01:26:47.380Z,2.97
2022-10-14T01:30:00.283Z,2.77
2022-10-14T01:33:10.452Z,1.93
2022-10-14T01:36:12.628Z,2.27
2022-10-14T01:39:18.541Z,3.53
2022-10-14T01:42:22.802Z,3.27
2022-10-14T01:45:39.561Z,3.43
2022-10-14T01:48:27.312Z,3.13
2022-10-14T01:51:17.021Z,3.03
2022-10-14T01:54:12.882Z,3.83
2022-10-14T01:57:03.332Z,2.43
2022-10-14T01:59:51.981Z,3.40
2022-10-14T02:02:39.181Z,2.63
2022-10-14T02:05:34.396Z,2.67
2022-10-14T02:08:37.329Z,2.30
2022-10-14T02:11:33.004Z,2.60
2022-10-14T02:14:39.077Z,4.23
2022-10-14T02:17:42.104Z,2.53
2022-10-14T02:21:03.169Z,3.83
2022-10-14T02:24:38.776Z,2.60
2022-10-14T02:27:33.731Z,3.77
2022-10-14T02:30:22.845Z,3.37
2022-10-14T02:33:18.740Z,2.87
2022-10-14T02:36:06.133Z,3.10
2022-10-14T02:38:56.809Z,3.07
2022-10-14T02:41:47.878Z,2.90
2022-10-14T02:44:34.823Z,2.30
2022-10-14T02:47:22.005Z,3.27
2022-10-14T02:50:09.845Z,2.37
2022-10-14T02:52:57.076Z,3.97
2022-10-14T02:55:44.042Z,2.23
2022-10-14T02:58:31.116Z,2.03
2022-10-14T03:01:18.177Z,2.40
2022-10-14T03:04:05.320Z,2.40
2022-10-14T03:06:52.809Z,3.10
2022-10-14T03:09:41.591Z,2.03
2022-10-14T03:12:29.800Z,2.00
2022-10-14T03:15:17.342Z,2.07
2022-10-14T03:18:04.233Z,2.37
2022-10-14T03:21:00.663Z,2.87
2022-10-14T03:23:53.944Z,1.53
2022-10-14T03:26:49.689Z,1.40
2022-10-14T03:29:41.359Z,1.73
2022-10-14T03:32:37.532Z,2.10
2022-10-14T03:35:42.635Z,2.20
2022-10-14T03:38:33.159Z,1.50
2022-10-14T03:41:21.429Z,2.10
2022-10-14T03:44:08.861Z,1.97
2022-10-14T03:46:58.710Z,1.93
2022-10-14T03:49:50.459Z,1.63
2022-10-14T03:52:46.583Z,1.97
2022-10-14T03:55:53.162Z,1.97
2022-10-14T03:58:41.363Z,1.90
2022-10-14T04:01:32.961Z,1.60
2022-10-14T04:04:36.611Z,1.50
2022-10-14T04:07:24.559Z,1.67
2022-10-14T04:10:16.219Z,2.93
2022-10-14T04:13:09.207Z,1.50
2022-10-14T04:15:58.274Z,1.70
2022-10-14T04:18:58.968Z,3.03
2022-10-14T04:21:45.896Z,1.70
2022-10-14T04:24:33.216Z,2.10
2022-10-14T04:27:20.167Z,1.63
2022-10-14T04:30:13.929Z,1.60
2022-10-14T04:33:09.069Z,1.80
2022-10-14T04:35:57.307Z,1.43
2022-10-14T04:38:48.707Z,1.63
2022-10-14T04:41:36.136Z,1.50
2022-10-14T04:44:24.277Z,1.30
2022-10-14T04:47:14.415Z,1.50
2022-10-14T04:50:01.512Z,1.60
2022-10-14T04:52:50.872Z,1.77
2022-10-14T04:55:38.372Z,1.33
2022-10-14T04:58:25.550Z,1.60
2022-10-14T05:01:15.492Z,1.37
2022-10-14T05:04:02.849Z,1.60
2022-10-14T05:06:54.942Z,1.07
2022-10-14T05:09:49.004Z,1.50
2022-10-14T05:12:52.346Z,1.77
2022-10-14T05:15:39.569Z,1.20
2022-10-14T05:18:31.634Z,1.30
2022-10-14T05:21:26.072Z,1.53
2022-10-14T05:24:23.064Z,1.63
2022-10-14T05:27:10.134Z,1.80
2022-10-14T05:29:57.312Z,1.20
2022-10-14T05:32:44.376Z,1.77
2022-10-14T05:35:57.097Z,1.47
2022-10-14T05:38:39.036Z,1.20
2022-10-14T05:41:25.931Z,1.53
2022-10-14T05:44:13.382Z,1.30
2022-10-14T05:47:00.192Z,2.10
2022-10-14T05:49:47.794Z,0.90
2022-10-14T05:52:35.361Z,1.47
2022-10-14T05:55:31.634Z,2.83
2022-10-14T05:58:21.845Z,2.80
2022-10-14T06:01:08.933Z,1.13
2022-10-14T06:03:59.068Z,1.90
2022-10-14T06:06:46.196Z,1.30
2022-10-14T06:09:35.093Z,1.67
2022-10-14T06:12:22.635Z,2.53
2022-10-14T06:15:10.757Z,2.83
2022-10-14T06:17:57.660Z,1.80
2022-10-14T06:20:45.781Z,1.60
2022-10-14T06:23:32.857Z,1.70
2022-10-14T06:26:25.099Z,1.50
2022-10-14T06:29:11.890Z,2.03
2022-10-14T06:31:58.848Z,2.70
2022-10-14T06:34:45.888Z,1.40
2022-10-14T06:37:32.806Z,2.00
2022-10-14T06:40:19.894Z,1.73
2022-10-14T06:43:06.869Z,1.33
2022-10-14T06:45:53.944Z,1.27
2022-10-14T06:48:40.806Z,1.30
2022-10-14T06:51:27.625Z,1.17
2022-10-14T06:54:14.554Z,1.33
2022-10-14T06:57:01.605Z,2.10
2022-10-14T06:59:48.669Z,2.50
2022-10-14T07:02:36.246Z,1.33
2022-10-14T07:05:23.413Z,2.70
2022-10-14T07:08:12.877Z,1.13
2022-10-14T07:11:02.762Z,0.67
2022-10-14T07:13:49.671Z,1.23
2022-10-14T07:16:36.583Z,1.53
2022-10-14T07:19:23.652Z,1.40
2022-10-14T07:22:10.545Z,1.33
2022-10-14T07:24:57.468Z,1.00
2022-10-14T07:27:24.777Z,1.40
2022-10-14T07:29:52.337Z,1.63
2022-10-14T07:32:19.289Z,1.17
2022-10-14T07:35:06.220Z,0.80
2022-10-14T07:37:53.180Z,1.50
2022-10-14T07:40:40.541Z,1.00
2022-10-14T07:43:27.602Z,1.00
2022-10-14T07:46:14.652Z,1.33
2022-10-14T07:49:01.619Z,0.87
2022-10-14T07:51:48.818Z,3.63
2022-10-14T07:54:42.134Z,1.10
2022-10-14T07:57:29.066Z,2.03
2022-10-14T08:00:15.864Z,1.13
2022-10-14T08:03:02.901Z,2.07
2022-10-14T08:05:49.728Z,3.07
2022-10-14T08:08:38.312Z,1.47
2022-10-14T08:11:31.708Z,2.20
2022-10-14T08:14:19.203Z,1.57
2022-10-14T08:17:06.348Z,1.43
2022-10-14T08:19:53.472Z,1.33
2022-10-14T08:22:41.018Z,1.13
2022-10-14T08:25:28.340Z,1.00
2022-10-14T08:28:15.613Z,2.03
2022-10-14T08:31:02.678Z,2.90
2022-10-14T08:33:49.704Z,1.03
2022-10-14T08:36:38.545Z,1.93
2022-10-14T08:39:25.687Z,1.83
2022-10-14T08:42:21.618Z,1.00
2022-10-14T08:45:15.003Z,2.20
2022-10-14T08:48:05.579Z,1.67
2022-10-14T08:50:56.040Z,1.10
2022-10-14T08:53:28.925Z,1.87
2022-10-14T08:56:00.567Z,1.70
2022-10-14T08:58:46.533Z,2.83
2022-10-14T09:01:25.049Z,1.07
2022-10-14T09:03:58.600Z,0.87
2022-10-14T09:06:31.805Z,1.13
2022-10-14T09:09:26.966Z,1.70
2022-10-14T09:12:25.039Z,1.33
2022-10-14T09:15:45.485Z,1.63
2022-10-14T09:18:50.871Z,1.20
2022-10-14T09:21:53.668Z,1.00
2022-10-14T09:24:59.049Z,0.90
2022-10-14T09:30:38.692Z,0.60
2022-10-14T09:33:26.393Z,2.60
2022-10-14T09:36:13.316Z,1.87
2022-10-14T09:39:03.843Z,2.63
2022-10-14T09:41:53.127Z,3.03
2022-10-14T09:44:43.264Z,2.00
2022-10-14T09:47:33.499Z,1.60
2022-10-14T09:50:20.560Z,3.47
2022-10-14T09:53:12.857Z,1.53
2022-10-14T09:56:08.683Z,1.43
2022-10-14T09:59:12.968Z,1.03
2022-10-14T10:02:08.731Z,4.20
2022-10-14T10:05:07.372Z,0.87
2022-10-14T10:07:55.221Z,0.97
2022-10-14T10:10:42.351Z,0.90
2022-10-14T10:13:43.319Z,1.37
2022-10-14T10:20:03.521Z,1.33
2022-10-14T10:22:50.564Z,1.23
2022-10-14T10:25:40.671Z,1.50
2022-10-14T10:28:37.641Z,1.77
2022-10-14T10:31:47.970Z,1.17
2022-10-14T10:34:46.621Z,2.60
2022-10-14T10:38:08.815Z,2.10
2022-10-14T10:41:19.104Z,1.00
2022-10-14T10:44:38.259Z,1.27
2022-10-14T10:47:51.295Z,0.57
2022-10-14T10:50:56.537Z,1.77
2022-10-14T10:54:13.109Z,1.17
2022-10-14T10:57:12.634Z,1.20
2022-10-14T11:00:02.258Z,2.33
2022-10-14T11:03:12.650Z,2.67
2022-10-14T11:06:14.879Z,0.70
2022-10-14T11:09:28.074Z,1.53
2022-10-14T11:12:32.830Z,1.67
2022-10-14T11:15:50.223Z,0.40
2022-10-14T11:19:01.074Z,0.93
2022-10-14T11:21:56.885Z,1.00
2022-10-14T11:24:43.770Z,1.87
2022-10-14T11:28:25.570Z,1.23
2022-10-14T11:31:25.601Z,1.20
2022-10-14T11:34:31.198Z,0.80
2022-10-14T11:37:31.253Z,1.67
2022-10-14T11:40:24.519Z,2.00
2022-10-14T11:43:53.541Z,1.23
2022-10-14T11:46:42.481Z,1.93
2022-10-14T11:49:52.437Z,0.47
2022-10-14T11:52:49.410Z,0.70
2022-10-14T11:55:49.810Z,0.90
2022-10-14T11:58:45.581Z,0.80
2022-10-14T12:01:42.655Z,1.40
2022-10-14T12:04:39.537Z,0.53
2022-10-14T12:07:38.918Z,1.00
2022-10-14T12:10:43.893Z,1.20
2022-10-14T12:13:37.493Z,2.40
2022-10-14T12:16:28.492Z,0.67
2022-10-14T12:19:17.086Z,0.80
2022-10-14T12:22:14.309Z,1.07
2022-10-14T12:25:10.270Z,2.37
2022-10-14T12:27:57.739Z,2.10
2022-10-14T12:30:59.136Z,1.20
2022-10-14T12:33:47.302Z,0.80
2022-10-14T12:36:32.976Z,0.50
2022-10-14T12:39:38.377Z,0.57
2022-10-14T12:42:31.721Z,1.03
2022-10-14T12:45:34.684Z,1.00
2022-10-14T12:48:37.339Z,0.77
2022-10-14T12:51:40.915Z,0.80
2022-10-14T12:54:34.492Z,1.20
2022-10-14T12:57:25.141Z,0.70
2022-10-14T13:00:14.472Z,0.70
2022-10-14T13:03:06.435Z,1.43
2022-10-14T13:05:58.857Z,0.33
2022-10-14T13:08:47.985Z,0.73
2022-10-14T13:11:46.812Z,1.77
2022-10-14T13:15:14.083Z,2.33
2022-10-14T13:18:07.188Z,0.93
2022-10-14T13:20:55.344Z,0.70
2022-10-14T13:23:51.319Z,2.17
2022-10-14T13:26:50.905Z,1.93
2022-10-14T13:29:41.212Z,3.87
2022-10-14T13:32:37.574Z,1.77
2022-10-14T13:35:50.246Z,0.97
2022-10-14T13:38:40.196Z,2.83
2022-10-14T13:41:36.969Z,2.50
2022-10-14T13:44:24.275Z,1.00
2022-10-14T13:47:13.203Z,3.73
2022-10-14T13:50:00.539Z,3.50
2022-10-14T13:52:48.144Z,1.93
2022-10-14T13:55:41.480Z,2.97
2022-10-14T13:58:37.412Z,4.00
2022-10-14T14:01:25.570Z,3.37
2022-10-14T14:04:15.812Z,3.03
2022-10-14T14:07:27.770Z,3.00
2022-10-14T14:10:25.741Z,1.47
2022-10-14T14:13:12.919Z,2.27
2022-10-14T14:16:00.185Z,3.23
2022-10-14T14:19:13.558Z,1.87
2022-10-14T14:22:00.645Z,5.10
2022-10-14T14:24:47.504Z,4.67
2022-10-14T14:27:38.160Z,2.83
2022-10-14T14:30:54.314Z,2.67
2022-10-14T14:33:53.912Z,5.03
2022-10-14T14:36:51.837Z,5.90
2022-10-14T14:39:45.689Z,2.53
2022-10-14T14:42:32.917Z,4.53
2022-10-14T14:45:27.828Z,4.57
2022-10-14T14:48:17.741Z,3.87
2022-10-14T14:51:05.499Z,4.53
2022-10-14T14:53:52.580Z,6.73
2022-10-14T14:57:04.905Z,6.93
2022-10-14T15:00:01.900Z,6.83
2022-10-14T15:02:50.928Z,9.93
2022-10-14T15:05:40.334Z,8.27
2022-10-14T15:08:41.851Z,7.83
2022-10-14T15:11:28.923Z,8.67
2022-10-14T15:14:20.088Z,8.03
2022-10-14T15:17:12.953Z,6.07
2022-10-14T15:19:59.922Z,10.00
2022-10-14T15:22:54.185Z,9.57
2022-10-14T15:25:47.491Z,6.20
2022-10-14T15:28:49.558Z,6.87
2022-10-14T15:31:36.636Z,10.30
2022-10-14T15:34:24.600Z,7.73
2022-10-14T15:37:12.648Z,9.40
2022-10-14T15:39:59.613Z,10.57
2022-10-14T15:42:46.632Z,12.60
2022-10-14T15:45:34.561Z,11.20
2022-10-14T15:48:26.368Z,10.47
2022-10-14T15:51:13.309Z,9.50
2022-10-14T15:54:00.275Z,9.53
2022-10-14T15:56:49.116Z,9.97
2022-10-14T15:59:36.260Z,9.40
2022-10-14T16:02:24.519Z,12.97
2022-10-14T16:05:19.878Z,9.87
2022-10-14T16:08:08.656Z,10.30
2022-10-14T16:10:55.606Z,12.27
2022-10-14T16:13:22.869Z,8.17
2022-10-14T16:15:54.793Z,9.63
2022-10-14T16:18:23.700Z,10.20
2022-10-14T16:20:55.311Z,13.77
2022-10-14T16:23:43.394Z,12.13
2022-10-14T16:26:30.540Z,10.67
2022-10-14T16:29:18.200Z,13.30
2022-10-14T16:32:08.866Z,13.27
2022-10-14T16:34:55.788Z,12.33
2022-10-14T16:37:42.709Z,15.00
2022-10-14T16:40:36.587Z,11.90
2022-10-14T16:43:25.722Z,10.53
2022-10-14T16:46:15.508Z,12.80
2022-10-14T16:49:03.238Z,10.60
2022-10-14T16:51:50.303Z,8.53
2022-10-14T16:54:37.237Z,12.93
2022-10-14T16:57:25.437Z,13.13
2022-10-14T17:00:12.337Z,12.60
2022-10-14T17:02:59.616Z,10.37
2022-10-14T17:05:46.465Z,11.63
2022-10-14T17:08:34.140Z,10.90
2022-10-14T17:11:21.086Z,13.47
2022-10-14T17:14:11.421Z,14.60
2022-10-14T17:16:58.468Z,12.93
2022-10-14T17:19:45.781Z,14.30
2022-10-14T17:22:32.766Z,15.37
2022-10-14T17:25:19.797Z,10.93
2022-10-14T17:28:07.146Z,15.20
2022-10-14T17:30:53.958Z,11.70
2022-10-14T17:33:41.026Z,12.23
2022-10-14T17:36:35.381Z,14.83
2022-10-14T17:39:27.627Z,8.73
2022-10-14T17:42:16.855Z,13.33
2022-10-14T17:45:07.121Z,11.03
2022-10-14T17:47:54.066Z,9.07
2022-10-14T17:50:41.361Z,10.20
2022-10-14T17:53:28.392Z,11.07
2022-10-14T17:56:15.541Z,13.40
2022-10-14T17:59:02.538Z,11.37
2022-10-14T18:02:02.269Z,9.60
2022-10-14T18:04:51.075Z,11.83
2022-10-14T18:07:37.938Z,10.67
2022-10-14T20:54:28.151Z,6.60
2022-10-14T20:56:55.404Z,4.70
2022-10-14T20:59:22.317Z,4.23
2022-10-14T21:01:49.385Z,5.17
2022-10-14T21:04:17.254Z,5.87
2022-10-14T21:07:04.105Z,4.97
2022-10-14T21:09:51.007Z,7.10
2022-10-14T21:12:38.485Z,7.13
2022-10-14T21:15:25.705Z,8.07
2022-10-14T21:18:12.853Z,6.97
2022-10-14T21:20:59.753Z,7.23
2022-10-14T21:23:46.668Z,7.60
2022-10-14T21:26:33.865Z,6.60
2022-10-14T21:29:21.406Z,7.60
2022-10-14T21:32:09.530Z,6.87
2022-10-14T21:34:56.332Z,5.67
2022-10-14T21:37:43.259Z,8.00
2022-10-14T21:40:30.624Z,9.00
2022-10-14T21:43:17.720Z,8.07
2022-10-14T21:46:04.644Z,6.27
2022-10-14T21:48:31.957Z,7.40
2022-10-14T21:51:04.160Z,6.93
2022-10-14T21:53:32.279Z,7.03
2022-10-14T21:55:59.848Z,8.10
2022-10-14T21:58:27.677Z,6.90
2022-10-14T22:01:22.901Z,7.57
2022-10-14T22:03:54.781Z,7.17
2022-10-14T22:06:21.763Z,6.97
2022-10-14T22:08:51.453Z,6.67
2022-10-14T22:11:30.321Z,6.30
2022-10-14T22:13:58.849Z,8.30
2022-10-14T22:16:28.826Z,8.90
2022-10-14T22:18:58.933Z,6.53
2022-10-14T22:21:47.584Z,7.87
2022-10-14T22:24:34.545Z,8.00
2022-10-14T22:27:21.760Z,7.50
2022-10-14T22:30:08.911Z,8.33
2022-10-14T22:32:56.049Z,8.50
2022-10-14T22:35:44.236Z,8.83
2022-10-14T22:38:31.244Z,8.60
2022-10-14T22:41:20.949Z,8.00
2022-10-14T22:44:16.082Z,7.57
2022-10-14T22:47:03.038Z,10.03
2022-10-14T22:49:49.928Z,11.03
2022-10-14T22:52:36.892Z,9.60
2022-10-14T22:55:24.108Z,9.03
2022-10-14T22:58:11.089Z,10.93
2022-10-14T23:00:58.247Z,12.57
2022-10-14T23:03:45.264Z,9.00
2022-10-14T23:06:33.720Z,10.63
2022-10-14T23:09:20.876Z,11.33
2022-10-14T23:12:07.725Z,10.80
2022-10-14T23:14:54.851Z,11.30
2022-10-14T23:17:42.097Z,10.13
2022-10-14T23:20:29.993Z,10.57
2022-10-14T23:23:17.110Z,11.30
2022-10-14T23:26:04.097Z,10.43
2022-10-14T23:28:51.255Z,9.43
2022-10-14T23:31:41.033Z,12.30
2022-10-14T23:34:32.299Z,11.73
2022-10-14T23:37:19.205Z,11.50
2022-10-14T23:40:06.197Z,16.37
2022-10-14T23:42:53.167Z,13.83
2022-10-14T23:45:40.105Z,11.50
2022-10-14T23:48:27.120Z,11.77
2022-10-14T23:51:14.481Z,14.53
2022-10-14T23:54:01.385Z,16.57
2022-10-14T23:56:48.299Z,16.97
2022-10-14T23:59:35.149Z,14.33
